Terminal Aerodrome Forecast
Issued by NWS

Home | Current Version | Previous Version | Graphics & Text | Print | Product List | Glossary On
Versions: 1 2 3 4 5 6 7 8 9 10 11 12 13 14 15
000
FTUS43 KGRB 212337
TAFCWA
TAF
KCWA 212337Z 2200/2224 15007KT P6SM BKN100
     FM220600 16004KT 4SM BR VCTS BKN110CB WS020/22035KT
     FM221100 18005KT 3SM BR SCT150
     FM221400 20011G17KT P6SM SCT200
     FM222300 19009KT P6SM FEW200
      AMD LTD TO CLD VIS AND WIND 2203/2211=

USA.gov is the U.S. government's official web portal to all federal, state and local government web resources and services.